Time;durP1;ratioP1;P1;durP2;ratioP2;P2;SDS_P1;SDS_P2;PMS_P1;PMS_P2;Temp;Humidity;BMP_temperature;BMP_pressure;BME280_temperature;BME280_humidity;BME280_pressure;Samples;Min_cycle;Max_cycle;Signal;HPM_P1;HPM_P2
2023/04/06 00:00:23;;;;;;;7.53;3.80;;;;;;;-0.26;92.71;101148.59;4990235;28;20030;-77
2023/04/06 00:02:48;;;;;;;10.90;4.53;;;;;;;-0.29;92.88;101147.56;4989673;28;20050;-77
2023/04/06 00:05:14;;;;;;;8.37;4.33;;;;;;;-0.28;92.46;101146.75;4970487;28;20030;-77
2023/04/06 00:07:40;;;;;;;6.33;3.33;;;;;;;-0.30;92.75;101148.38;4987059;28;20556;-77
2023/04/06 00:10:06;;;;;;;8.07;4.20;;;;;;;-0.32;93.17;101152.59;4990098;28;20205;-77
2023/04/06 00:12:31;;;;;;;10.07;4.43;;;;;;;-0.32;92.41;101147.41;4985679;28;20077;-77
2023/04/06 00:14:57;;;;;;;8.97;4.23;;;;;;;-0.36;92.82;101145.50;4986657;28;20038;-77
2023/04/06 00:17:22;;;;;;;8.47;3.90;;;;;;;-0.53;95.34;101153.34;4988337;28;20485;-77
2023/04/06 00:19:47;;;;;;;10.23;4.40;;;;;;;-0.58;95.47;101152.22;4985319;28;20043;-77
2023/04/06 00:22:13;;;;;;;11.53;4.63;;;;;;;-0.61;95.32;101152.09;4986528;28;20046;-77
2023/04/06 00:24:38;;;;;;;8.80;4.50;;;;;;;-0.59;95.14;101149.56;4989134;28;20072;-77
2023/04/06 00:27:03;;;;;;;7.60;4.00;;;;;;;-0.59;95.21;101147.00;4985772;28;20058;-77
2023/04/06 00:29:29;;;;;;;8.50;4.13;;;;;;;-0.59;95.87;101147.88;4970383;28;20034;-77
2023/04/06 00:31:54;;;;;;;7.97;4.40;;;;;;;-0.65;96.10;101142.41;4966828;28;20533;-77
2023/04/06 00:34:20;;;;;;;8.70;3.63;;;;;;;-0.65;95.59;101151.88;4986822;28;20516;-77
2023/04/06 00:36:45;;;;;;;10.37;5.07;;;;;;;-0.64;95.50;101149.34;4987722;28;20408;-77
2023/04/06 00:39:10;;;;;;;8.23;4.00;;;;;;;-0.65;94.71;101152.78;4983706;28;20043;-77
2023/04/06 00:41:36;;;;;;;11.23;4.47;;;;;;;-0.67;94.18;101149.19;4969173;28;20034;-78
2023/04/06 00:44:01;;;;;;;8.97;4.73;;;;;;;-0.70;94.27;101146.47;4986829;28;20157;-77
2023/04/06 00:46:27;;;;;;;8.73;4.23;;;;;;;-0.69;93.84;101145.63;4991563;28;20039;-77
2023/04/06 00:48:53;;;;;;;6.67;3.80;;;;;;;-0.69;93.57;101156.00;4987361;28;20038;-77
2023/04/06 00:51:18;;;;;;;7.50;3.93;;;;;;;-0.69;93.81;101145.63;4983764;28;20033;-77
2023/04/06 00:53:43;;;;;;;7.73;3.67;;;;;;;-0.72;94.17;101151.56;4984628;28;20165;-77
2023/04/06 00:56:10;;;;;;;7.23;3.83;;;;;;;-0.73;93.74;101151.50;4984870;28;20089;-77
2023/04/06 00:58:47;;;;;;;6.03;3.13;;;;;;;-0.77;94.72;101152.16;4985305;28;20042;-77
2023/04/06 01:01:12;;;;;;;6.50;3.30;;;;;;;-0.81;94.59;101148.53;4970452;28;20415;-77
2023/04/06 01:03:38;;;;;;;8.77;3.33;;;;;;;-0.89;93.68;101142.97;4967830;28;20085;-77
2023/04/06 01:06:04;;;;;;;6.13;3.33;;;;;;;-0.96;93.87;101146.06;4971695;28;20553;-77
2023/04/06 01:08:36;;;;;;;9.07;3.70;;;;;;;-1.00;95.19;101144.13;4968563;28;20041;-77
2023/04/06 01:11:17;;;;;;;6.63;3.35;;;;;;;-1.05;93.99;101144.69;4984816;28;20062;-77
2023/04/06 01:13:44;;;;;;;10.40;3.87;;;;;;;-1.10;95.46;101136.72;4967687;28;20105;-77
2023/04/06 01:16:24;;;;;;;8.47;3.47;;;;;;;-1.14;96.13;101140.84;4972729;28;20093;-77
2023/04/06 01:19:09;;;;;;;7.20;3.70;;;;;;;-1.13;97.18;101139.13;4969295;28;20524;-77
2023/04/06 01:21:35;;;;;;;9.80;4.30;;;;;;;-1.14;100.00;101134.78;4966401;28;20488;-77
2023/04/06 01:24:14;;;;;;;8.27;3.77;;;;;;;-1.16;100.00;101147.63;4969307;28;20062;-77
2023/04/06 01:27:03;;;;;;;8.27;3.90;;;;;;;-1.16;98.23;101142.44;4968692;28;20057;-77
2023/04/06 01:29:48;;;;;;;7.43;3.53;;;;;;;-1.18;99.29;101132.81;4989145;28;20042;-77
2023/04/06 01:32:21;;;;;;;;;;;;;;;-1.18;100.00;101144.09;4968120;28;20034;-77
2023/04/06 01:34:49;;;;;;;6.50;3.80;;;;;;;-1.23;100.00;101140.38;4971596;28;20010;-77
2023/04/06 01:37:15;;;;;;;8.13;3.80;;;;;;;-1.28;100.00;101136.66;4994604;28;20496;-77
2023/04/06 01:39:43;;;;;;;7.67;4.07;;;;;;;-1.28;99.08;101138.34;4973009;28;20505;-77
2023/04/06 01:42:11;;;;;;;7.93;3.50;;;;;;;-1.35;100.00;101135.44;4970116;28;20033;-77
2023/04/06 01:44:38;;;;;;;8.67;3.70;;;;;;;-1.36;100.00;101133.69;4968994;28;20122;-77
2023/04/06 01:47:09;;;;;;;10.77;3.90;;;;;;;-1.36;100.00;101131.09;4971968;28;20034;-77
2023/04/06 01:49:34;;;;;;;6.67;3.43;;;;;;;-1.36;100.00;101132.81;4969123;28;20066;-77
2023/04/06 01:52:01;;;;;;;6.03;3.33;;;;;;;-1.38;100.00;101135.28;4971304;28;20084;-78
2023/04/06 01:54:26;;;;;;;6.70;3.50;;;;;;;-1.39;100.00;101133.53;4971263;28;20030;-77
2023/04/06 01:57:04;;;;;;;11.00;4.07;;;;;;;-1.39;100.00;101130.94;4987745;28;20043;-77
2023/04/06 01:59:34;;;;;;;8.77;3.73;;;;;;;-1.40;100.00;101128.25;4967025;28;20084;-77
2023/04/06 02:02:04;;;;;;;6.47;3.63;;;;;;;-1.47;100.00;101123.56;4966694;28;20038;-77
2023/04/06 02:04:32;;;;;;;8.03;3.60;;;;;;;-1.48;100.00;101133.03;4966490;28;20060;-77
2023/04/06 02:07:07;;;;;;;6.50;3.53;;;;;;;-1.53;100.00;101131.03;4977078;28;20373;-77
2023/04/06 02:09:33;;;;;;;11.03;3.40;;;;;;;-1.56;100.00;101134.34;4969658;28;20022;-77
2023/04/06 02:11:59;;;;;;;6.30;3.50;;;;;;;-1.60;100.00;101129.81;4969144;28;20022;-77
2023/04/06 02:14:25;;;;;;;8.57;4.30;;;;;;;-1.60;100.00;101129.81;4966049;28;20030;-77
2023/04/06 02:16:53;;;;;;;6.37;3.43;;;;;;;-1.63;100.00;101127.94;4969980;28;20041;-77
2023/04/06 02:19:18;;;;;;;8.37;3.87;;;;;;;-1.60;100.00;101124.63;4983661;28;20042;-77
2023/04/06 02:21:44;;;;;;;7.87;3.70;;;;;;;-1.58;100.00;101125.59;4966873;28;20045;-77
2023/04/06 02:24:09;;;;;;;8.07;3.80;;;;;;;-1.57;100.00;101123.09;4978918;28;20057;-77
2023/04/06 02:26:34;;;;;;;9.23;4.00;;;;;;;-1.57;100.00;101117.03;4968463;28;20042;-77
2023/04/06 02:29:01;;;;;;;7.70;4.37;;;;;;;-1.56;100.00;101113.63;4968260;28;20045;-77
2023/04/06 02:31:27;;;;;;;7.10;3.73;;;;;;;-1.57;100.00;101117.94;4985257;28;20045;-77
2023/04/06 02:33:53;;;;;;;7.87;3.93;;;;;;;-1.57;100.00;101114.47;4976562;28;20049;-77
2023/04/06 02:36:18;;;;;;;7.33;3.63;;;;;;;-1.60;100.00;101112.59;4986504;28;20471;-78
2023/04/06 02:38:44;;;;;;;7.73;4.03;;;;;;;-1.59;100.00;101116.06;4965612;28;20030;-77
2023/04/06 02:41:10;;;;;;;9.73;3.97;;;;;;;-1.58;100.00;101110.06;4965120;28;20038;-77
2023/04/06 02:43:36;;;;;;;8.13;3.57;;;;;;;-1.59;100.00;101108.31;4970052;28;20034;-77
2023/04/06 02:46:13;;;;;;;10.87;4.00;;;;;;;-1.63;100.00;101115.00;4978823;28;20038;-77
2023/04/06 02:48:38;;;;;;;5.70;3.10;;;;;;;-1.68;100.00;101118.16;4965666;28;20061;-77
2023/04/06 02:51:04;;;;;;;9.80;3.50;;;;;;;-1.68;100.00;101112.97;4975647;28;20069;-78
2023/04/06 02:53:30;;;;;;;7.23;4.30;;;;;;;-1.74;100.00;101113.56;4970357;28;20976;-77
2023/04/06 02:55:55;;;;;;;7.23;3.40;;;;;;;-1.80;100.00;101118.41;4969293;28;20034;-77
2023/04/06 02:58:23;;;;;;;8.53;4.57;;;;;;;-1.85;100.00;101114.69;4953643;28;20023;-78
2023/04/06 03:00:53;;;;;;;9.33;3.67;;;;;;;-1.87;100.00;101114.59;4980493;28;20068;-77
2023/04/06 03:03:18;;;;;;;8.97;3.87;;;;;;;-1.88;100.00;101123.19;4970550;28;20575;-77
2023/04/06 03:05:44;;;;;;;9.43;4.30;;;;;;;-1.91;100.00;101115.25;4966464;28;20493;-78
2023/04/06 03:08:10;;;;;;;7.80;4.17;;;;;;;-1.92;100.00;101107.41;4970108;28;20038;-77
2023/04/06 03:10:41;;;;;;;8.13;3.90;;;;;;;-1.92;100.00;101110.00;4967411;28;20042;-77
2023/04/06 03:13:07;;;;;;;9.97;4.23;;;;;;;-1.91;100.00;101123.03;4965210;28;20037;-77
2023/04/06 03:15:54;;;;;;;7.30;4.00;;;;;;;-1.92;100.00;101116.06;4976289;28;20121;-77
2023/04/06 03:18:25;;;;;;;7.60;4.30;;;;;;;-1.93;100.00;101122.06;4971733;28;20548;-77
2023/04/06 03:20:55;;;;;;;8.50;4.50;;;;;;;-1.94;100.00;101124.53;4984623;28;20035;-77
2023/04/06 03:23:22;;;;;;;9.23;3.60;;;;;;;-1.96;100.00;101121.00;4965119;28;20063;-77
2023/04/06 03:25:52;;;;;;;9.73;4.00;;;;;;;-2.04;100.00;101121.47;4969062;28;20038;-77
2023/04/06 03:28:19;;;;;;;8.23;3.97;;;;;;;-2.15;100.00;101124.28;4966498;28;20038;-77
2023/04/06 03:30:52;;;;;;;;;;;;;;;-2.13;100.00;101122.66;4985042;28;20405;-77
2023/04/06 03:33:28;;;;;;;;;;;;;;;-2.19;100.00;101127.53;4980560;28;19914;-77
2023/04/06 03:35:54;;;;;;;7.73;3.70;;;;;;;-2.19;100.00;101117.19;4983985;28;19914;-77
2023/04/06 03:38:23;;;;;;;12.33;4.47;;;;;;;-2.17;100.00;101131.97;4980613;28;20050;-77
2023/04/06 03:40:48;;;;;;;8.73;4.10;;;;;;;-2.17;100.00;101131.97;4966550;28;20038;-77
2023/04/06 03:43:13;;;;;;;9.20;4.37;;;;;;;-2.16;100.00;101127.69;4963648;28;20174;-77
2023/04/06 03:45:39;;;;;;;9.23;4.40;;;;;;;-2.20;100.00;101134.41;4984723;28;20065;-77
2023/04/06 03:48:05;;;;;;;9.87;4.13;;;;;;;-2.25;100.00;101138.41;4967535;28;20046;-77
2023/04/06 03:50:34;;;;;;;7.73;3.90;;;;;;;-2.26;100.00;101134.91;4968025;28;20026;-78
2023/04/06 03:53:02;;;;;;;10.87;4.77;;;;;;;-2.23;100.00;101137.69;4962790;28;20071;-77
2023/04/06 03:55:28;;;;;;;10.13;4.80;;;;;;;-2.19;100.00;101135.28;4968106;28;20074;-78
2023/04/06 03:57:55;;;;;;;9.47;4.20;;;;;;;-2.15;100.00;101144.97;4973704;28;20054;-78
2023/04/06 04:00:20;;;;;;;8.17;3.87;;;;;;;-2.16;100.00;101144.06;4988160;28;20527;-78
2023/04/06 04:02:46;;;;;;;8.83;4.13;;;;;;;-2.16;100.00;101145.78;4982548;28;20505;-78
2023/04/06 04:05:11;;;;;;;9.27;4.17;;;;;;;-2.16;100.00;101143.19;4982978;28;20100;-78
2023/04/06 04:07:36;;;;;;;9.17;3.87;;;;;;;-2.22;100.00;101146.34;4973134;28;20038;-77
2023/04/06 04:10:02;;;;;;;6.67;3.47;;;;;;;-2.27;100.00;101150.38;4966888;28;20481;-78
2023/04/06 04:12:29;;;;;;;10.57;4.13;;;;;;;-2.30;100.00;101145.91;4975365;28;20031;-78
2023/04/06 04:14:56;;;;;;;6.83;3.80;;;;;;;-2.34;100.00;101149.13;4964213;28;20493;-78
2023/04/06 04:17:22;;;;;;;10.13;4.47;;;;;;;-2.38;100.00;101143.69;4968349;28;20042;-78
2023/04/06 04:19:47;;;;;;;8.37;3.93;;;;;;;-2.36;100.00;101155.91;4967357;28;20038;-77
2023/04/06 04:22:14;;;;;;;10.60;4.27;;;;;;;-2.33;100.00;101150.91;4973671;28;20457;-78
2023/04/06 04:24:40;;;;;;;8.30;4.70;;;;;;;-2.30;100.00;101151.09;4968847;28;20257;-78
2023/04/06 04:27:05;;;;;;;9.40;4.73;;;;;;;-2.29;100.00;101144.22;4973776;23;20125;-74
2023/04/06 04:29:32;;;;;;;9.20;4.77;;;;;;;-2.30;100.00;101140.75;4995672;28;20036;-74
2023/04/06 04:32:02;;;;;;;10.93;5.27;;;;;;;-2.34;100.00;101143.94;5004690;28;20054;-74
2023/04/06 04:34:30;;;;;;;7.10;3.70;;;;;;;-2.41;100.00;101136.69;5004115;28;20049;-74
2023/04/06 04:36:56;;;;;;;9.83;4.90;;;;;;;-2.41;100.00;101141.84;5000473;28;20104;-74
2023/04/06 04:39:32;;;;;;;8.90;5.63;;;;;;;-2.39;100.00;101144.50;4984084;28;20061;-74
2023/04/06 04:42:02;;;;;;;8.37;4.60;;;;;;;-2.38;100.00;101143.69;4967080;28;20452;-74
2023/04/06 04:44:29;;;;;;;10.63;4.37;;;;;;;-2.35;100.00;101142.19;4985036;28;20042;-73
2023/04/06 04:46:55;;;;;;;10.03;4.60;;;;;;;-2.29;100.00;101141.63;4977075;28;20027;-74
2023/04/06 04:49:26;;;;;;;10.03;4.23;;;;;;;-2.30;100.00;101148.50;4984399;28;20062;-73
2023/04/06 04:51:52;;;;;;;8.53;4.20;;;;;;;-2.32;100.00;101150.09;4988081;28;20078;-74
2023/04/06 04:54:31;;;;;;;8.97;4.17;;;;;;;-2.26;100.00;101152.13;4973747;28;20093;-74
2023/04/06 04:56:57;;;;;;;9.53;4.77;;;;;;;-2.22;100.00;101148.94;4976173;28;20030;-74
2023/04/06 04:59:35;;;;;;;10.80;5.00;;;;;;;-2.18;100.00;101150.84;4979459;28;20042;-74
2023/04/06 05:02:09;;;;;;;7.27;4.20;;;;;;;-2.09;100.00;101160.84;4993188;28;20400;-74
2023/04/06 05:04:43;;;;;;;16.93;4.37;;;;;;;-2.06;100.00;101145.47;4975747;28;20030;-73
2023/04/06 05:07:12;;;;;;;21.07;9.77;;;;;;;-2.01;100.00;101152.69;4990270;28;20038;-74
2023/04/06 05:09:39;;;;;;;13.43;6.83;;;;;;;-1.98;100.00;101154.53;4976087;28;20041;-74
2023/04/06 05:12:06;;;;;;;11.43;5.37;;;;;;;-1.96;100.00;101152.94;4976413;28;20026;-74
2023/04/06 05:14:36;;;;;;;9.80;5.13;;;;;;;-1.95;100.00;101154.69;4964702;28;20407;-74
2023/04/06 05:17:05;;;;;;;12.57;5.20;;;;;;;-1.85;100.00;101161.28;4977410;28;20035;-73
2023/04/06 05:19:31;;;;;;;8.73;4.53;;;;;;;-1.80;100.00;101160.72;4983790;28;20125;-74
2023/04/06 05:21:56;;;;;;;7.00;3.90;;;;;;;-1.67;100.00;101167.44;4974886;28;20100;-73
2023/04/06 05:24:21;;;;;;;13.13;5.73;;;;;;;-1.57;100.00;101161.94;4971588;28;20054;-74
2023/04/06 05:26:48;;;;;;;10.20;5.23;;;;;;;-1.49;100.00;101162.34;4978590;28;20412;-74
2023/04/06 05:29:21;;;;;;;8.30;4.18;;;;;;;-1.38;100.00;101162.91;4975666;28;20238;-74
2023/04/06 05:31:46;;;;;;;14.17;7.63;;;;;;;-1.24;100.00;101168.78;4985750;28;20038;-74
2023/04/06 05:34:12;;;;;;;16.93;7.43;;;;;;;-1.16;100.00;101164.88;4972816;28;20062;-74
2023/04/06 05:36:40;;;;;;;14.67;7.63;;;;;;;-1.05;100.00;101171.50;4974204;28;20445;-74
2023/04/06 05:39:14;;;;;;;18.73;7.20;;;;;;;-0.93;100.00;101164.34;4986837;28;20038;-74
2023/04/06 05:41:44;;;;;;;13.17;6.17;;;;;;;-0.79;100.00;101174.50;4974409;28;20125;-74
2023/04/06 05:44:11;;;;;;;12.10;6.67;;;;;;;-0.67;100.00;101175.13;4989290;28;20034;-73
2023/04/06 05:46:38;;;;;;;11.00;5.13;;;;;;;-0.58;100.00;101175.56;4972796;28;20045;-74
2023/04/06 05:49:06;;;;;;;11.07;5.43;;;;;;;-0.51;100.00;101180.25;4975300;28;20381;-74
2023/04/06 05:51:32;;;;;;;8.33;4.20;;;;;;;-0.45;100.00;101172.78;4972441;28;20026;-74
2023/04/06 05:53:59;;;;;;;10.13;4.83;;;;;;;-0.36;100.00;101177.50;4990110;28;20069;-74
2023/04/06 05:56:25;;;;;;;11.80;5.13;;;;;;;-0.24;100.00;101172.00;4977871;28;20018;-74
2023/04/06 05:58:50;;;;;;;10.60;5.10;;;;;;;-0.14;100.00;101171.63;4982164;28;20035;-74
2023/04/06 06:01:22;;;;;;;12.52;5.40;;;;;;;-0.05;100.00;101179.88;4971619;28;20034;-74
2023/04/06 06:03:47;;;;;;;10.60;5.00;;;;;;;0.05;100.00;101175.09;4986963;28;20042;-74
2023/04/06 06:06:13;;;;;;;9.50;5.60;;;;;;;0.18;100.00;101182.63;4976555;28;20060;-74
2023/04/06 06:09:05;;;;;;;10.57;6.07;;;;;;;0.32;100.00;101168.59;4980219;28;20065;-74
2023/04/06 06:11:34;;;;;;;10.50;5.47;;;;;;;0.41;100.00;101173.28;4974103;28;20030;-74
2023/04/06 06:14:02;;;;;;;10.13;5.10;;;;;;;0.46;100.00;101170.91;4974911;28;20026;-74
2023/04/06 06:16:28;;;;;;;11.00;4.90;;;;;;;0.55;100.00;101174.81;4973942;28;20795;-74
2023/04/06 06:18:53;;;;;;;9.05;4.85;;;;;;;0.68;100.00;101170.13;4982476;28;20038;-74
2023/04/06 06:21:19;;;;;;;7.95;4.60;;;;;;;0.80;99.79;101168.09;4982694;28;20180;-74
2023/04/06 06:23:44;;;;;;;8.13;4.93;;;;;;;0.87;99.21;101165.81;4970141;28;20035;-74
2023/04/06 06:26:14;;;;;;;11.43;4.72;;;;;;;0.96;99.04;101167.03;4970770;28;20127;-74
2023/04/06 06:28:39;;;;;;;10.32;4.88;;;;;;;1.07;98.17;101160.56;4981684;28;20516;-74
2023/04/06 06:31:05;;;;;;;9.95;5.15;;;;;;;1.17;98.25;101172.25;4973500;28;20419;-74
2023/04/06 06:33:30;;;;;;;10.63;5.05;;;;;;;1.29;97.81;101164.97;4981767;28;20026;-74
2023/04/06 06:35:57;;;;;;;10.35;4.60;;;;;;;1.45;97.47;101174.31;4977273;28;20558;-74
2023/04/06 06:38:22;;;;;;;7.65;4.75;;;;;;;1.58;96.60;101163.56;4983213;28;20026;-74
2023/04/06 06:40:48;;;;;;;10.88;4.70;;;;;;;1.73;96.25;101171.09;4972267;28;20164;-74
2023/04/06 06:43:15;;;;;;;10.38;5.90;;;;;;;1.89;96.11;101170.00;4982784;28;20030;-74
2023/04/06 06:45:50;;;;;;;9.90;6.22;;;;;;;2.04;95.75;101172.28;4977680;28;20039;-74
2023/04/06 06:48:15;;;;;;;9.38;5.85;;;;;;;2.14;94.50;101177.91;4986116;28;20045;-74
2023/04/06 06:50:40;;;;;;;8.63;4.60;;;;;;;2.25;94.20;101182.63;4985541;28;20047;-74
2023/04/06 06:53:06;;;;;;;8.55;4.57;;;;;;;2.34;93.31;101178.66;4982019;28;20026;-74
2023/04/06 06:55:33;;;;;;;10.15;5.03;;;;;;;2.44;92.89;101174.69;4978417;28;20504;-74
2023/04/06 06:57:58;;;;;;;12.15;6.55;;;;;;;2.55;91.59;101181.19;4976760;28;20035;-74
2023/04/06 07:00:23;;;;;;;10.55;5.63;;;;;;;2.62;90.47;101183.19;4982670;28;20027;-75
2023/04/06 07:02:50;;;;;;;7.80;4.78;;;;;;;2.74;90.12;101176.63;4986517;28;20444;-74
2023/04/06 07:05:16;;;;;;;9.68;4.40;;;;;;;2.85;89.92;101178.78;4972301;28;20104;-74
2023/04/06 07:07:42;;;;;;;10.00;5.57;;;;;;;2.95;89.78;101177.38;4973653;28;20030;-74
2023/04/06 07:10:07;;;;;;;7.10;4.15;;;;;;;3.05;89.22;101176.88;4974407;28;20045;-74
2023/04/06 07:12:36;;;;;;;9.65;4.13;;;;;;;3.20;88.89;101180.88;4971266;28;20026;-74
2023/04/06 07:15:02;;;;;;;6.53;3.97;;;;;;;3.29;88.61;101181.16;4983138;28;20045;-74
2023/04/06 07:17:27;;;;;;;8.18;4.20;;;;;;;3.36;87.19;101177.06;4976366;28;20034;-74
2023/04/06 07:19:53;;;;;;;7.57;3.72;;;;;;;3.40;87.75;101176.28;4974242;28;20046;-74
2023/04/06 07:22:18;;;;;;;6.68;3.88;;;;;;;3.55;87.48;101178.53;4979970;28;20034;-75
2023/04/06 07:24:43;;;;;;;8.52;4.43;;;;;;;3.70;86.77;101179.03;4973105;28;20046;-75
2023/04/06 07:27:09;;;;;;;10.93;5.68;;;;;;;3.87;86.90;101171.72;4984846;28;20047;-74
2023/04/06 07:29:34;;;;;;;7.80;4.55;;;;;;;4.06;86.71;101179.31;4980555;28;20054;-74
2023/04/06 07:32:00;;;;;;;10.95;5.90;;;;;;;4.24;86.19;101178.06;4982977;28;20228;-74
2023/04/06 07:34:26;;;;;;;11.23;5.18;;;;;;;4.39;85.59;101163.72;4970736;28;20527;-75
2023/04/06 07:36:53;;;;;;;10.25;4.40;;;;;;;4.52;84.52;101159.75;4974131;28;20034;-74
2023/04/06 07:39:19;;;;;;;7.38;4.28;;;;;;;4.60;83.94;101165.19;4970934;28;20031;-75
2023/04/06 07:41:45;;;;;;;13.43;7.40;;;;;;;4.71;84.45;101161.13;4977689;28;20034;-74
2023/04/06 07:44:11;;;;;;;12.60;8.32;;;;;;;4.90;84.55;101165.16;4973583;28;20045;-74
2023/04/06 07:46:36;;;;;;;15.02;8.48;;;;;;;5.10;84.33;101159.56;4971468;28;20035;-75
2023/04/06 07:49:02;;;;;;;9.52;5.63;;;;;;;5.21;83.58;101166.88;4982613;28;20030;-74
2023/04/06 07:51:30;;;;;;;14.10;4.65;;;;;;;5.30;82.53;101163.59;4967049;28;20022;-75
2023/04/06 07:53:56;;;;;;;6.18;3.88;;;;;;;5.36;82.45;101168.97;4974354;28;20038;-75
2023/04/06 07:56:21;;;;;;;8.18;4.47;;;;;;;5.42;80.75;101163.00;4985724;28;20125;-75
2023/04/06 07:58:47;;;;;;;8.40;3.97;;;;;;;5.42;78.86;101163.00;4986659;28;20128;-75
2023/04/06 08:01:13;;;;;;;7.90;3.88;;;;;;;5.43;77.80;101165.66;4991300;28;20113;-74
2023/04/06 08:03:38;;;;;;;7.25;3.75;;;;;;;5.52;79.13;101175.47;4986012;28;20078;-75
2023/04/06 08:06:05;;;;;;;6.88;3.63;;;;;;;5.63;77.21;101171.41;4983373;28;20031;-75
2023/04/06 08:08:30;;;;;;;7.95;3.50;;;;;;;5.71;77.88;101175.09;4983302;28;20039;-75
2023/04/06 08:10:56;;;;;;;6.88;3.95;;;;;;;5.84;77.31;101165.78;4976078;28;20594;-75
2023/04/06 08:13:21;;;;;;;7.05;4.03;;;;;;;5.96;76.87;101161.69;4983452;28;20039;-75
2023/04/06 08:15:47;;;;;;;7.45;4.28;;;;;;;6.05;76.15;101168.03;4983114;28;20084;-75
2023/04/06 08:18:12;;;;;;;7.63;3.83;;;;;;;6.07;75.11;101161.06;4985896;28;20504;-75
2023/04/06 08:20:38;;;;;;;9.38;4.22;;;;;;;6.22;75.50;101163.16;4990070;28;20109;-75
2023/04/06 08:23:04;;;;;;;7.03;4.20;;;;;;;6.34;73.74;101166.06;4989724;28;20157;-75
2023/04/06 08:25:29;;;;;;;7.20;4.00;;;;;;;6.45;72.85;101165.41;4989383;28;20118;-74
2023/04/06 08:27:55;;;;;;;9.45;4.18;;;;;;;6.57;72.46;101163.00;4984716;28;20046;-75
2023/04/06 08:30:20;;;;;;;7.45;4.30;;;;;;;6.69;71.47;101163.25;4973340;28;20061;-75
2023/04/06 08:32:46;;;;;;;7.20;3.25;;;;;;;6.78;69.77;101165.16;4986619;28;20038;-75
2023/04/06 08:35:11;;;;;;;7.25;2.65;;;;;;;6.86;67.89;101171.44;4983721;28;20045;-75
2023/04/06 08:37:37;;;;;;;6.32;2.92;;;;;;;6.98;68.29;101171.69;4989762;28;20042;-75
2023/04/06 08:40:03;;;;;;;6.82;3.20;;;;;;;7.04;67.73;101163.03;4977332;28;20393;-75
2023/04/06 08:42:32;;;;;;;6.85;3.88;;;;;;;7.19;68.46;101158.06;4987194;28;20030;-75
2023/04/06 08:44:57;;;;;;;5.97;3.95;;;;;;;7.31;67.60;101164.38;4987672;28;20031;-75
2023/04/06 08:47:23;;;;;;;7.30;2.97;;;;;;;7.38;63.11;101161.88;4987876;28;20034;-75
2023/04/06 08:49:49;;;;;;;6.97;2.42;;;;;;;7.37;58.47;101160.13;4990143;28;20031;-75
2023/04/06 08:52:17;;;;;;;4.13;2.20;;;;;;;7.28;55.90;101165.22;4991421;28;20113;-75
2023/04/06 08:54:43;;;;;;;5.40;1.95;;;;;;;7.39;57.97;101157.53;4985855;28;20038;-75
2023/04/06 08:57:09;;;;;;;4.50;1.55;;;;;;;7.53;56.14;101156.00;4986232;28;20077;-75
2023/04/06 08:59:35;;;;;;;5.35;1.92;;;;;;;7.70;58.16;101156.25;4985962;28;20412;-75
2023/04/06 09:02:04;;;;;;;7.93;2.90;;;;;;;7.87;57.23;101157.41;4989485;28;20404;-75
2023/04/06 09:04:29;;;;;;;8.07;3.60;;;;;;;7.98;57.23;101154.06;4974729;28;20030;-75
2023/04/06 09:06:55;;;;;;;7.30;2.78;;;;;;;8.09;56.45;101157.72;4984281;28;20447;-75
2023/04/06 09:09:20;;;;;;;8.10;3.78;;;;;;;8.18;55.53;101159.63;4984740;28;20042;-75
2023/04/06 09:11:47;;;;;;;5.72;3.03;;;;;;;8.28;55.93;101154.50;4985999;28;20038;-75
2023/04/06 09:14:13;;;;;;;4.30;2.25;;;;;;;8.26;53.59;101148.31;4984616;28;20038;-75
2023/04/06 09:16:41;;;;;;;5.80;2.88;;;;;;;8.34;55.22;101140.53;4983123;28;20061;-75
2023/04/06 09:19:07;;;;;;;6.60;3.10;;;;;;;8.52;55.23;101145.19;4986330;28;20040;-74
2023/04/06 09:21:32;;;;;;;5.82;2.90;;;;;;;8.58;53.94;101144.38;4989522;28;20679;-74
2023/04/06 09:24:02;;;;;;;7.35;2.95;;;;;;;8.42;52.45;101144.19;4982641;28;20039;-74
2023/04/06 09:26:27;;;;;;;11.20;5.05;;;;;;;8.48;52.28;101140.72;4989592;28;20042;-74
2023/04/06 09:28:56;;;;;;;7.20;3.70;;;;;;;8.44;50.18;101134.56;4980081;28;20544;-75
2023/04/06 09:31:25;;;;;;;8.30;4.68;;;;;;;8.55;51.47;101145.22;4985616;28;20047;-75
2023/04/06 09:33:52;;;;;;;6.97;4.90;;;;;;;8.65;52.44;101139.19;4984767;28;20447;-74
2023/04/06 09:36:17;;;;;;;8.15;5.07;;;;;;;8.80;50.44;101134.94;4984812;28;20035;-75
2023/04/06 09:38:57;;;;;;;11.55;6.18;;;;;;;8.82;49.71;101131.47;4985215;28;20835;-75
2023/04/06 09:41:23;;;;;;;11.48;7.00;;;;;;;8.94;51.73;101131.59;4985604;28;20089;-75
2023/04/06 09:43:50;;;;;;;7.63;4.38;;;;;;;9.09;49.90;101132.59;4985183;28;20038;-75
2023/04/06 09:46:17;;;;;;;6.93;3.75;;;;;;;9.04;47.63;101127.31;4980301;28;20142;-75
2023/04/06 09:48:43;;;;;;;6.00;2.72;;;;;;;9.07;46.82;101119.44;4981466;28;20041;-75
2023/04/06 09:51:13;;;;;;;8.02;4.82;;;;;;;9.21;47.91;101120.44;4985110;28;20043;-75
2023/04/06 09:53:42;;;;;;;6.45;4.00;;;;;;;9.48;48.89;101111.00;4982797;28;20404;-75
2023/04/06 09:56:12;;;;;;;5.60;2.72;;;;;;;9.58;47.29;101115.47;4982723;28;20092;-75
2023/04/06 09:58:43;;;;;;;6.88;2.90;;;;;;;9.59;44.14;101106.72;4988912;28;20084;-75
2023/04/06 10:01:15;;;;;;;9.38;3.80;;;;;;;9.60;42.28;101112.84;4991335;28;20038;-75
2023/04/06 10:03:45;;;;;;;;;;;;;;;9.50;40.15;101101.34;4984642;28;20050;-74
2023/04/06 10:06:12;;;;;;;9.35;5.40;;;;;;;9.74;42.35;101105.91;4981970;28;19940;-74
2023/04/06 10:08:42;;;;;;;8.40;5.53;;;;;;;9.97;40.91;101100.78;4986434;28;20031;-75
2023/04/06 10:11:12;;;;;;;7.10;3.78;;;;;;;10.13;41.04;101100.88;4985187;28;20088;-75
2023/04/06 10:13:37;;;;;;;6.45;3.85;;;;;;;9.99;40.92;101093.75;4983703;28;20425;-75
2023/04/06 10:16:04;;;;;;;6.70;3.60;;;;;;;10.20;42.62;101103.53;4983316;28;20041;-75
2023/04/06 10:18:30;;;;;;;7.18;4.18;;;;;;;10.51;42.05;101101.06;4981170;28;20480;-75
2023/04/06 10:21:12;;;;;;;9.48;6.15;;;;;;;10.86;41.97;101103.78;4989904;28;20554;-74
2023/04/06 10:24:04;;;;;;;;;;;;;;;11.00;41.34;101095.88;4967928;28;20049;-75
2023/04/06 10:26:31;;;;;;;7.15;5.25;;;;;;;10.96;42.90;101095.00;4962518;28;20360;-75
2023/04/06 10:29:03;;;;;;;7.38;4.50;;;;;;;11.02;40.53;101095.88;4980170;28;20533;-75
2023/04/06 10:31:28;;;;;;;9.52;7.43;;;;;;;10.99;41.82;101093.25;4984796;28;20038;-75
2023/04/06 10:34:01;;;;;;;10.52;8.10;;;;;;;11.07;42.02;101088.84;4982002;28;20040;-75
2023/04/06 10:36:31;;;;;;;7.20;3.90;;;;;;;11.10;35.55;101094.13;4984622;28;20030;-75
2023/04/06 10:39:02;;;;;;;4.82;2.30;;;;;;;11.16;38.56;101088.81;4980893;28;20042;-75
2023/04/06 10:41:42;;;;;;;6.38;3.83;;;;;;;11.31;35.84;101086.19;4973916;28;20034;-76
2023/04/06 10:44:07;;;;;;;4.72;2.65;;;;;;;11.37;37.85;101090.59;4984378;28;20045;-75
2023/04/06 10:46:33;;;;;;;7.53;3.30;;;;;;;11.77;38.59;101085.28;4982776;28;20046;-75
2023/04/06 10:49:13;;;;;;;5.10;2.90;;;;;;;12.15;35.99;101084.28;4980805;28;20027;-75
2023/04/06 10:51:39;;;;;;;4.43;2.47;;;;;;;12.34;35.17;101082.44;4969790;28;20042;-75
2023/04/06 10:54:06;;;;;;;4.82;2.80;;;;;;;12.38;36.88;101087.72;4985044;28;20042;-76
2023/04/06 10:56:34;;;;;;;5.13;3.00;;;;;;;12.69;36.53;101069.91;4984639;28;20064;-75
2023/04/06 10:58:59;;;;;;;3.85;2.40;;;;;;;12.87;34.81;101068.91;4981999;28;20038;-75
2023/04/06 11:01:27;;;;;;;7.20;4.00;;;;;;;13.12;33.55;101064.28;4984834;28;20053;-76
2023/04/06 11:03:57;;;;;;;8.25;4.45;;;;;;;13.57;35.66;101066.56;4972010;28;20121;-75
2023/04/06 11:06:28;;;;;;;6.68;4.40;;;;;;;13.92;34.20;101066.22;4982760;28;20031;-75
2023/04/06 11:08:54;;;;;;;5.28;3.00;;;;;;;14.18;34.34;101059.72;4980580;28;20048;-76
2023/04/06 11:11:21;;;;;;;7.10;4.43;;;;;;;14.22;33.74;101059.63;4972438;28;20050;-76
2023/04/06 11:13:54;;;;;;;5.30;3.03;;;;;;;14.41;32.11;101057.66;4983740;28;20042;-76
2023/04/06 11:16:33;;;;;;;5.35;2.80;;;;;;;14.74;31.62;101055.41;4987269;28;20041;-75
2023/04/06 11:19:01;;;;;;;4.40;2.80;;;;;;;14.75;31.06;101050.97;4983589;28;20078;-75
2023/04/06 11:21:37;;;;;;;4.18;2.40;;;;;;;14.90;31.12;101043.66;4972579;28;20039;-75
2023/04/06 11:24:06;;;;;;;5.70;3.72;;;;;;;14.89;31.55;101049.88;4979278;28;20042;-75
2023/04/06 11:26:31;;;;;;;8.93;8.00;;;;;;;14.87;31.73;101046.34;4981932;28;20042;-75